sensor_id;sensor_type;location;lat;lon;timestamp;temperature;humidity
13336;DHT22;6737;51.480;11.962;2024-03-07T00:02:10;6.30;99.90
13336;DHT22;6737;51.480;11.962;2024-03-07T00:04:36;6.30;99.90
13336;DHT22;6737;51.480;11.962;2024-03-07T00:07:02;6.30;99.90
13336;DHT22;6737;51.480;11.962;2024-03-07T00:09:33;6.30;99.90
13336;DHT22;6737;51.480;11.962;2024-03-07T00:12:01;6.30;99.90
13336;DHT22;6737;51.480;11.962;2024-03-07T00:14:27;6.30;99.90
13336;DHT22;6737;51.480;11.962;2024-03-07T00:16:54;6.20;99.90
13336;DHT22;6737;51.480;11.962;2024-03-07T00:19:20;6.20;99.90
13336;DHT22;6737;51.480;11.962;2024-03-07T00:21:47;6.20;99.90
13336;DHT22;6737;51.480;11.962;2024-03-07T00:24:14;6.30;99.90
13336;DHT22;6737;51.480;11.962;2024-03-07T00:26:41;6.30;99.90
13336;DHT22;6737;51.480;11.962;2024-03-07T00:29:07;6.20;99.90
13336;DHT22;6737;51.480;11.962;2024-03-07T00:31:33;6.20;99.90
13336;DHT22;6737;51.480;11.962;2024-03-07T00:33:59;6.20;99.90
13336;DHT22;6737;51.480;11.962;2024-03-07T00:36:25;6.20;99.90
13336;DHT22;6737;51.480;11.962;2024-03-07T00:38:52;6.30;99.90
13336;DHT22;6737;51.480;11.962;2024-03-07T00:41:19;6.30;99.90
13336;DHT22;6737;51.480;11.962;2024-03-07T00:43:46;6.30;99.90
13336;DHT22;6737;51.480;11.962;2024-03-07T00:46:12;6.20;99.90
13336;DHT22;6737;51.480;11.962;2024-03-07T00:48:38;6.30;99.90
13336;DHT22;6737;51.480;11.962;2024-03-07T00:51:04;6.30;99.90
13336;DHT22;6737;51.480;11.962;2024-03-07T00:53:30;6.30;99.90
13336;DHT22;6737;51.480;11.962;2024-03-07T00:55:57;6.30;99.90
13336;DHT22;6737;51.480;11.962;2024-03-07T00:58:23;6.20;99.90
13336;DHT22;6737;51.480;11.962;2024-03-07T01:00:48;6.20;99.90
13336;DHT22;6737;51.480;11.962;2024-03-07T01:03:15;6.20;99.90
13336;DHT22;6737;51.480;11.962;2024-03-07T01:05:43;6.20;99.90
13336;DHT22;6737;51.480;11.962;2024-03-07T01:08:09;6.10;99.90
13336;DHT22;6737;51.480;11.962;2024-03-07T01:10:35;6.20;99.90
13336;DHT22;6737;51.480;11.962;2024-03-07T01:13:01;6.10;99.90
13336;DHT22;6737;51.480;11.962;2024-03-07T01:15:33;6.20;99.90
13336;DHT22;6737;51.480;11.962;2024-03-07T01:17:59;6.20;99.90
13336;DHT22;6737;51.480;11.962;2024-03-07T01:20:25;6.20;99.90
13336;DHT22;6737;51.480;11.962;2024-03-07T01:22:51;6.20;99.90
13336;DHT22;6737;51.480;11.962;2024-03-07T01:25:18;6.10;99.90
13336;DHT22;6737;51.480;11.962;2024-03-07T01:27:44;6.10;99.90
13336;DHT22;6737;51.480;11.962;2024-03-07T01:30:10;6.10;99.90
13336;DHT22;6737;51.480;11.962;2024-03-07T01:32:36;6.10;99.90
13336;DHT22;6737;51.480;11.962;2024-03-07T01:35:02;6.10;99.90
13336;DHT22;6737;51.480;11.962;2024-03-07T01:37:27;6.10;99.90
13336;DHT22;6737;51.480;11.962;2024-03-07T01:39:54;6.20;99.90
13336;DHT22;6737;51.480;11.962;2024-03-07T01:42:20;6.10;99.90
13336;DHT22;6737;51.480;11.962;2024-03-07T01:44:45;6.10;99.90
13336;DHT22;6737;51.480;11.962;2024-03-07T01:47:12;6.20;99.90
13336;DHT22;6737;51.480;11.962;2024-03-07T01:49:40;6.10;99.90
13336;DHT22;6737;51.480;11.962;2024-03-07T01:52:06;6.10;99.90
13336;DHT22;6737;51.480;11.962;2024-03-07T01:54:33;6.10;99.90
13336;DHT22;6737;51.480;11.962;2024-03-07T01:57:01;6.10;99.90
13336;DHT22;6737;51.480;11.962;2024-03-07T01:59:27;6.10;99.90
13336;DHT22;6737;51.480;11.962;2024-03-07T02:01:56;6.00;99.90
13336;DHT22;6737;51.480;11.962;2024-03-07T02:04:22;6.00;99.90
13336;DHT22;6737;51.480;11.962;2024-03-07T02:06:50;6.00;99.90
13336;DHT22;6737;51.480;11.962;2024-03-07T02:09:16;5.90;99.90
13336;DHT22;6737;51.480;11.962;2024-03-07T02:11:43;6.00;99.90
13336;DHT22;6737;51.480;11.962;2024-03-07T02:14:08;5.90;99.90
13336;DHT22;6737;51.480;11.962;2024-03-07T02:16:34;5.90;99.90
13336;DHT22;6737;51.480;11.962;2024-03-07T02:19:00;5.90;99.90
13336;DHT22;6737;51.480;11.962;2024-03-07T02:21:27;5.90;99.90
13336;DHT22;6737;51.480;11.962;2024-03-07T02:23:53;5.90;99.90
13336;DHT22;6737;51.480;11.962;2024-03-07T02:26:20;6.00;99.90
13336;DHT22;6737;51.480;11.962;2024-03-07T02:28:45;6.00;99.90
13336;DHT22;6737;51.480;11.962;2024-03-07T02:31:11;6.00;99.90
13336;DHT22;6737;51.480;11.962;2024-03-07T02:33:37;6.00;99.90
13336;DHT22;6737;51.480;11.962;2024-03-07T02:36:04;6.00;99.90
13336;DHT22;6737;51.480;11.962;2024-03-07T02:38:29;6.00;99.90
13336;DHT22;6737;51.480;11.962;2024-03-07T02:40:55;6.00;99.90
13336;DHT22;6737;51.480;11.962;2024-03-07T02:43:21;6.00;99.90
13336;DHT22;6737;51.480;11.962;2024-03-07T02:45:47;6.00;99.90
13336;DHT22;6737;51.480;11.962;2024-03-07T02:48:13;5.90;99.90
13336;DHT22;6737;51.480;11.962;2024-03-07T02:50:39;5.80;99.90
13336;DHT22;6737;51.480;11.962;2024-03-07T02:53:05;5.80;99.90
13336;DHT22;6737;51.480;11.962;2024-03-07T02:55:34;5.80;99.90
13336;DHT22;6737;51.480;11.962;2024-03-07T02:57:59;5.90;99.90
13336;DHT22;6737;51.480;11.962;2024-03-07T03:00:26;5.90;99.90
13336;DHT22;6737;51.480;11.962;2024-03-07T03:02:57;5.90;99.90
13336;DHT22;6737;51.480;11.962;2024-03-07T03:05:23;5.80;99.90
13336;DHT22;6737;51.480;11.962;2024-03-07T03:07:50;5.80;99.90
13336;DHT22;6737;51.480;11.962;2024-03-07T03:10:27;5.80;99.90
13336;DHT22;6737;51.480;11.962;2024-03-07T03:12:56;5.70;99.90
13336;DHT22;6737;51.480;11.962;2024-03-07T03:15:26;5.80;99.90
13336;DHT22;6737;51.480;11.962;2024-03-07T03:17:52;5.70;99.90
13336;DHT22;6737;51.480;11.962;2024-03-07T03:20:18;5.80;99.90
13336;DHT22;6737;51.480;11.962;2024-03-07T03:22:53;5.70;99.90
13336;DHT22;6737;51.480;11.962;2024-03-07T03:25:20;5.80;99.90
13336;DHT22;6737;51.480;11.962;2024-03-07T03:27:47;5.70;99.90
13336;DHT22;6737;51.480;11.962;2024-03-07T03:30:13;5.70;99.90
13336;DHT22;6737;51.480;11.962;2024-03-07T03:32:42;5.70;99.90
13336;DHT22;6737;51.480;11.962;2024-03-07T03:35:08;5.60;99.90
13336;DHT22;6737;51.480;11.962;2024-03-07T03:37:42;5.70;99.90
13336;DHT22;6737;51.480;11.962;2024-03-07T03:40:09;5.60;99.90
13336;DHT22;6737;51.480;11.962;2024-03-07T03:42:36;5.60;99.90
13336;DHT22;6737;51.480;11.962;2024-03-07T03:45:04;5.70;99.90
13336;DHT22;6737;51.480;11.962;2024-03-07T03:47:36;5.70;99.90
13336;DHT22;6737;51.480;11.962;2024-03-07T03:50:06;5.70;99.90
13336;DHT22;6737;51.480;11.962;2024-03-07T03:52:33;5.70;99.90
13336;DHT22;6737;51.480;11.962;2024-03-07T03:55:01;5.70;99.90
13336;DHT22;6737;51.480;11.962;2024-03-07T03:57:28;5.70;99.90
13336;DHT22;6737;51.480;11.962;2024-03-07T03:59:55;5.70;99.90
13336;DHT22;6737;51.480;11.962;2024-03-07T04:02:25;5.80;99.90
13336;DHT22;6737;51.480;11.962;2024-03-07T04:04:52;5.80;99.90
13336;DHT22;6737;51.480;11.962;2024-03-07T04:07:20;5.80;99.90
13336;DHT22;6737;51.480;11.962;2024-03-07T04:09:47;5.80;99.90
13336;DHT22;6737;51.480;11.962;2024-03-07T04:12:13;5.90;99.90
13336;DHT22;6737;51.480;11.962;2024-03-07T04:14:40;5.90;99.90
13336;DHT22;6737;51.480;11.962;2024-03-07T04:17:07;5.90;99.90
13336;DHT22;6737;51.480;11.962;2024-03-07T04:19:36;5.80;99.90
13336;DHT22;6737;51.480;11.962;2024-03-07T04:22:04;5.90;99.90
13336;DHT22;6737;51.480;11.962;2024-03-07T04:24:32;5.90;99.90
13336;DHT22;6737;51.480;11.962;2024-03-07T04:27:02;6.00;99.90
13336;DHT22;6737;51.480;11.962;2024-03-07T04:29:32;6.00;99.90
13336;DHT22;6737;51.480;11.962;2024-03-07T04:31:58;6.10;99.90
13336;DHT22;6737;51.480;11.962;2024-03-07T04:34:24;6.10;99.90
13336;DHT22;6737;51.480;11.962;2024-03-07T04:36:50;6.10;99.90
13336;DHT22;6737;51.480;11.962;2024-03-07T04:39:16;6.00;99.90
13336;DHT22;6737;51.480;11.962;2024-03-07T04:41:51;6.10;99.90
13336;DHT22;6737;51.480;11.962;2024-03-07T04:44:18;6.00;99.90
13336;DHT22;6737;51.480;11.962;2024-03-07T04:46:50;6.10;99.90
13336;DHT22;6737;51.480;11.962;2024-03-07T04:49:21;6.10;99.90
13336;DHT22;6737;51.480;11.962;2024-03-07T04:51:52;6.10;99.90
13336;DHT22;6737;51.480;11.962;2024-03-07T04:54:19;6.10;99.90
13336;DHT22;6737;51.480;11.962;2024-03-07T04:56:50;6.10;99.90
13336;DHT22;6737;51.480;11.962;2024-03-07T04:59:17;6.10;99.90
13336;DHT22;6737;51.480;11.962;2024-03-07T05:01:44;6.10;99.90
13336;DHT22;6737;51.480;11.962;2024-03-07T05:04:10;6.10;99.90
13336;DHT22;6737;51.480;11.962;2024-03-07T05:06:37;6.10;99.90
13336;DHT22;6737;51.480;11.962;2024-03-07T05:09:04;6.10;99.90
13336;DHT22;6737;51.480;11.962;2024-03-07T05:11:33;6.20;99.90
13336;DHT22;6737;51.480;11.962;2024-03-07T05:14:00;6.20;99.90
13336;DHT22;6737;51.480;11.962;2024-03-07T05:16:27;6.20;99.90
13336;DHT22;6737;51.480;11.962;2024-03-07T05:18:53;6.20;99.90
13336;DHT22;6737;51.480;11.962;2024-03-07T05:21:19;6.20;99.90
13336;DHT22;6737;51.480;11.962;2024-03-07T05:24:08;6.20;99.90
13336;DHT22;6737;51.480;11.962;2024-03-07T05:26:35;6.20;99.90
13336;DHT22;6737;51.480;11.962;2024-03-07T05:29:08;6.20;99.90
13336;DHT22;6737;51.480;11.962;2024-03-07T05:31:38;6.10;99.90
13336;DHT22;6737;51.480;11.962;2024-03-07T05:34:10;6.20;99.90
13336;DHT22;6737;51.480;11.962;2024-03-07T05:36:36;6.20;99.90
13336;DHT22;6737;51.480;11.962;2024-03-07T05:39:09;6.30;99.90
13336;DHT22;6737;51.480;11.962;2024-03-07T05:41:37;6.20;99.90
13336;DHT22;6737;51.480;11.962;2024-03-07T05:44:04;6.20;99.90
13336;DHT22;6737;51.480;11.962;2024-03-07T05:46:41;6.20;99.90
13336;DHT22;6737;51.480;11.962;2024-03-07T05:49:11;6.30;99.90
13336;DHT22;6737;51.480;11.962;2024-03-07T05:51:37;6.20;99.90
13336;DHT22;6737;51.480;11.962;2024-03-07T05:54:03;6.30;99.90
13336;DHT22;6737;51.480;11.962;2024-03-07T05:56:33;6.20;99.90
13336;DHT22;6737;51.480;11.962;2024-03-07T05:59:02;6.30;99.90
13336;DHT22;6737;51.480;11.962;2024-03-07T06:01:38;6.30;99.90
13336;DHT22;6737;51.480;11.962;2024-03-07T06:04:06;6.30;99.90
13336;DHT22;6737;51.480;11.962;2024-03-07T06:06:39;6.30;99.90
13336;DHT22;6737;51.480;11.962;2024-03-07T06:09:07;6.30;99.90
13336;DHT22;6737;51.480;11.962;2024-03-07T06:11:37;6.30;99.90
13336;DHT22;6737;51.480;11.962;2024-03-07T06:14:04;6.20;99.90
13336;DHT22;6737;51.480;11.962;2024-03-07T06:16:36;6.20;99.90
13336;DHT22;6737;51.480;11.962;2024-03-07T06:19:05;6.20;99.90
13336;DHT22;6737;51.480;11.962;2024-03-07T06:21:36;6.20;99.90
13336;DHT22;6737;51.480;11.962;2024-03-07T06:24:03;6.20;99.90
13336;DHT22;6737;51.480;11.962;2024-03-07T06:26:34;6.20;99.90
13336;DHT22;6737;51.480;11.962;2024-03-07T06:29:07;6.20;99.90
13336;DHT22;6737;51.480;11.962;2024-03-07T06:31:37;6.10;99.90
13336;DHT22;6737;51.480;11.962;2024-03-07T06:34:03;6.10;99.90
13336;DHT22;6737;51.480;11.962;2024-03-07T06:36:29;6.20;99.90
13336;DHT22;6737;51.480;11.962;2024-03-07T06:38:55;6.10;99.90
13336;DHT22;6737;51.480;11.962;2024-03-07T06:41:21;6.10;99.90
13336;DHT22;6737;51.480;11.962;2024-03-07T06:43:47;6.10;99.90
13336;DHT22;6737;51.480;11.962;2024-03-07T06:46:15;6.00;99.90
13336;DHT22;6737;51.480;11.962;2024-03-07T06:48:44;6.00;99.90
13336;DHT22;6737;51.480;11.962;2024-03-07T06:51:10;6.10;99.90
13336;DHT22;6737;51.480;11.962;2024-03-07T06:53:36;6.10;99.90
13336;DHT22;6737;51.480;11.962;2024-03-07T06:56:02;6.10;99.90
13336;DHT22;6737;51.480;11.962;2024-03-07T06:58:28;6.10;99.90
13336;DHT22;6737;51.480;11.962;2024-03-07T07:00:54;6.20;99.90
13336;DHT22;6737;51.480;11.962;2024-03-07T07:03:23;6.20;99.90
13336;DHT22;6737;51.480;11.962;2024-03-07T07:05:50;6.20;99.90
13336;DHT22;6737;51.480;11.962;2024-03-07T07:08:16;6.10;99.90
13336;DHT22;6737;51.480;11.962;2024-03-07T07:10:42;6.10;99.90
13336;DHT22;6737;51.480;11.962;2024-03-07T07:13:09;6.00;99.90
13336;DHT22;6737;51.480;11.962;2024-03-07T07:15:36;6.10;99.90
13336;DHT22;6737;51.480;11.962;2024-03-07T07:18:03;6.20;99.90
13336;DHT22;6737;51.480;11.962;2024-03-07T07:20:29;6.00;99.90
13336;DHT22;6737;51.480;11.962;2024-03-07T07:22:56;6.10;99.90
13336;DHT22;6737;51.480;11.962;2024-03-07T07:25:23;6.20;99.90
13336;DHT22;6737;51.480;11.962;2024-03-07T07:27:51;6.20;99.90
13336;DHT22;6737;51.480;11.962;2024-03-07T07:30:18;6.30;99.90
13336;DHT22;6737;51.480;11.962;2024-03-07T07:32:45;6.30;99.90
13336;DHT22;6737;51.480;11.962;2024-03-07T07:35:12;6.20;99.90
13336;DHT22;6737;51.480;11.962;2024-03-07T07:37:40;6.30;99.90
13336;DHT22;6737;51.480;11.962;2024-03-07T07:40:11;6.40;99.90
13336;DHT22;6737;51.480;11.962;2024-03-07T07:42:41;6.50;99.90
13336;DHT22;6737;51.480;11.962;2024-03-07T07:45:09;6.50;99.90
13336;DHT22;6737;51.480;11.962;2024-03-07T07:47:39;6.20;99.90
13336;DHT22;6737;51.480;11.962;2024-03-07T07:50:15;6.10;99.90
13336;DHT22;6737;51.480;11.962;2024-03-07T07:52:48;6.30;99.90
13336;DHT22;6737;51.480;11.962;2024-03-07T07:55:20;6.20;99.90
13336;DHT22;6737;51.480;11.962;2024-03-07T07:57:48;6.30;99.90
13336;DHT22;6737;51.480;11.962;2024-03-07T08:00:16;6.50;99.90
13336;DHT22;6737;51.480;11.962;2024-03-07T08:02:59;6.40;99.90
13336;DHT22;6737;51.480;11.962;2024-03-07T08:05:28;6.30;99.90
13336;DHT22;6737;51.480;11.962;2024-03-07T08:07:56;6.40;99.90
13336;DHT22;6737;51.480;11.962;2024-03-07T08:10:27;6.50;99.90
13336;DHT22;6737;51.480;11.962;2024-03-07T08:12:56;6.50;99.90
13336;DHT22;6737;51.480;11.962;2024-03-07T08:15:24;6.60;99.90
13336;DHT22;6737;51.480;11.962;2024-03-07T08:17:51;6.60;99.90
13336;DHT22;6737;51.480;11.962;2024-03-07T08:20:20;6.40;99.90
13336;DHT22;6737;51.480;11.962;2024-03-07T08:22:49;6.70;99.90
13336;DHT22;6737;51.480;11.962;2024-03-07T08:25:23;6.40;99.90
13336;DHT22;6737;51.480;11.962;2024-03-07T08:27:50;6.30;99.90
13336;DHT22;6737;51.480;11.962;2024-03-07T08:30:17;6.40;99.90
13336;DHT22;6737;51.480;11.962;2024-03-07T08:32:48;6.30;99.90
13336;DHT22;6737;51.480;11.962;2024-03-07T08:35:15;6.30;99.90
13336;DHT22;6737;51.480;11.962;2024-03-07T08:37:43;6.30;99.90
13336;DHT22;6737;51.480;11.962;2024-03-07T08:40:15;6.50;99.90
13336;DHT22;6737;51.480;11.962;2024-03-07T08:42:50;6.60;99.90
13336;DHT22;6737;51.480;11.962;2024-03-07T08:45:17;6.70;99.90
13336;DHT22;6737;51.480;11.962;2024-03-07T08:47:49;6.60;99.90
13336;DHT22;6737;51.480;11.962;2024-03-07T08:50:16;6.30;99.90
13336;DHT22;6737;51.480;11.962;2024-03-07T08:52:44;6.40;99.90
13336;DHT22;6737;51.480;11.962;2024-03-07T08:55:12;6.60;99.90
13336;DHT22;6737;51.480;11.962;2024-03-07T08:57:41;6.70;99.90
13336;DHT22;6737;51.480;11.962;2024-03-07T09:00:08;6.60;99.90
13336;DHT22;6737;51.480;11.962;2024-03-07T09:02:35;6.80;99.90
13336;DHT22;6737;51.480;11.962;2024-03-07T09:05:02;6.90;99.90
13336;DHT22;6737;51.480;11.962;2024-03-07T09:07:28;7.00;99.90
13336;DHT22;6737;51.480;11.962;2024-03-07T09:09:55;6.90;99.90
13336;DHT22;6737;51.480;11.962;2024-03-07T09:12:22;6.50;99.90
13336;DHT22;6737;51.480;11.962;2024-03-07T09:14:48;6.80;99.90
13336;DHT22;6737;51.480;11.962;2024-03-07T09:17:13;6.80;99.90
13336;DHT22;6737;51.480;11.962;2024-03-07T09:19:40;6.90;99.90
13336;DHT22;6737;51.480;11.962;2024-03-07T09:22:07;6.90;99.90
13336;DHT22;6737;51.480;11.962;2024-03-07T09:24:33;6.90;99.90
13336;DHT22;6737;51.480;11.962;2024-03-07T09:27:00;7.00;99.90
13336;DHT22;6737;51.480;11.962;2024-03-07T09:29:26;6.90;99.90
13336;DHT22;6737;51.480;11.962;2024-03-07T09:31:53;6.90;99.90
13336;DHT22;6737;51.480;11.962;2024-03-07T09:34:20;7.10;99.90
13336;DHT22;6737;51.480;11.962;2024-03-07T09:36:47;6.90;99.90
13336;DHT22;6737;51.480;11.962;2024-03-07T09:39:15;6.70;99.90
13336;DHT22;6737;51.480;11.962;2024-03-07T09:41:41;6.70;99.90
13336;DHT22;6737;51.480;11.962;2024-03-07T09:44:18;6.40;99.90
13336;DHT22;6737;51.480;11.962;2024-03-07T09:46:50;6.50;99.90
13336;DHT22;6737;51.480;11.962;2024-03-07T09:49:19;6.40;99.90
13336;DHT22;6737;51.480;11.962;2024-03-07T09:51:46;6.60;99.90
13336;DHT22;6737;51.480;11.962;2024-03-07T09:54:13;7.00;99.90
13336;DHT22;6737;51.480;11.962;2024-03-07T09:56:41;7.30;99.90
13336;DHT22;6737;51.480;11.962;2024-03-07T09:59:11;7.20;99.90
13336;DHT22;6737;51.480;11.962;2024-03-07T10:01:41;7.00;99.90
13336;DHT22;6737;51.480;11.962;2024-03-07T10:04:13;7.10;99.90
13336;DHT22;6737;51.480;11.962;2024-03-07T10:06:43;7.40;99.90
13336;DHT22;6737;51.480;11.962;2024-03-07T10:09:13;7.40;99.90
13336;DHT22;6737;51.480;11.962;2024-03-07T10:11:42;7.30;99.90
13336;DHT22;6737;51.480;11.962;2024-03-07T10:14:09;7.50;99.90
13336;DHT22;6737;51.480;11.962;2024-03-07T10:16:36;7.70;99.90
13336;DHT22;6737;51.480;11.962;2024-03-07T10:19:05;7.60;99.90
13336;DHT22;6737;51.480;11.962;2024-03-07T10:21:33;7.50;99.90
13336;DHT22;6737;51.480;11.962;2024-03-07T10:24:08;7.70;99.90
13336;DHT22;6737;51.480;11.962;2024-03-07T10:26:40;7.80;99.90
13336;DHT22;6737;51.480;11.962;2024-03-07T10:29:07;7.80;99.90
13336;DHT22;6737;51.480;11.962;2024-03-07T10:31:36;7.70;99.90
13336;DHT22;6737;51.480;11.962;2024-03-07T10:34:04;7.60;99.90
13336;DHT22;6737;51.480;11.962;2024-03-07T10:36:31;7.70;99.90
13336;DHT22;6737;51.480;11.962;2024-03-07T10:39:01;7.70;99.90
13336;DHT22;6737;51.480;11.962;2024-03-07T10:41:48;7.80;99.90
13336;DHT22;6737;51.480;11.962;2024-03-07T10:44:24;8.00;99.90
13336;DHT22;6737;51.480;11.962;2024-03-07T10:46:57;7.80;99.90
13336;DHT22;6737;51.480;11.962;2024-03-07T10:49:33;8.10;99.90
13336;DHT22;6737;51.480;11.962;2024-03-07T10:52:03;8.10;99.90
13336;DHT22;6737;51.480;11.962;2024-03-07T11:00:08;8.10;99.90
13336;DHT22;6737;51.480;11.962;2024-03-07T11:02:56;8.00;99.90
13336;DHT22;6737;51.480;11.962;2024-03-07T11:05:26;7.90;99.90
13336;DHT22;6737;51.480;11.962;2024-03-07T11:07:58;7.80;99.90
13336;DHT22;6737;51.480;11.962;2024-03-07T11:10:28;7.70;99.90
13336;DHT22;6737;51.480;11.962;2024-03-07T11:12:57;7.70;99.90
13336;DHT22;6737;51.480;11.962;2024-03-07T11:15:25;7.80;99.90
13336;DHT22;6737;51.480;11.962;2024-03-07T11:17:54;7.70;99.90
13336;DHT22;6737;51.480;11.962;2024-03-07T11:20:21;7.70;99.90
13336;DHT22;6737;51.480;11.962;2024-03-07T11:22:47;7.50;99.90
13336;DHT22;6737;51.480;11.962;2024-03-07T11:25:18;7.40;99.90
13336;DHT22;6737;51.480;11.962;2024-03-07T11:28:00;7.40;99.90
13336;DHT22;6737;51.480;11.962;2024-03-07T11:30:28;7.50;99.90
13336;DHT22;6737;51.480;11.962;2024-03-07T11:32:55;7.50;99.90
13336;DHT22;6737;51.480;11.962;2024-03-07T11:35:31;7.50;99.90
13336;DHT22;6737;51.480;11.962;2024-03-07T11:37:58;7.40;99.90
13336;DHT22;6737;51.480;11.962;2024-03-07T11:42:52;7.20;99.90
13336;DHT22;6737;51.480;11.962;2024-03-07T11:45:20;7.00;99.90
13336;DHT22;6737;51.480;11.962;2024-03-07T11:47:56;6.80;99.90
13336;DHT22;6737;51.480;11.962;2024-03-07T11:50:32;7.00;99.90
13336;DHT22;6737;51.480;11.962;2024-03-07T11:53:02;6.90;99.90
13336;DHT22;6737;51.480;11.962;2024-03-07T11:55:28;7.00;99.90
13336;DHT22;6737;51.480;11.962;2024-03-07T11:58:19;7.10;99.90
13336;DHT22;6737;51.480;11.962;2024-03-07T12:00:49;7.20;99.90
13336;DHT22;6737;51.480;11.962;2024-03-07T12:03:18;7.30;99.90
13336;DHT22;6737;51.480;11.962;2024-03-07T12:05:48;7.30;99.90
13336;DHT22;6737;51.480;11.962;2024-03-07T12:08:14;7.30;99.90
13336;DHT22;6737;51.480;11.962;2024-03-07T12:10:42;7.30;99.90
13336;DHT22;6737;51.480;11.962;2024-03-07T12:13:12;7.20;99.90
13336;DHT22;6737;51.480;11.962;2024-03-07T12:15:41;7.30;99.90
13336;DHT22;6737;51.480;11.962;2024-03-07T12:18:09;7.30;99.90
13336;DHT22;6737;51.480;11.962;2024-03-07T12:20:39;7.40;99.90
13336;DHT22;6737;51.480;11.962;2024-03-07T12:23:07;7.40;99.90
13336;DHT22;6737;51.480;11.962;2024-03-07T12:25:38;7.40;99.90
13336;DHT22;6737;51.480;11.962;2024-03-07T12:28:12;7.20;99.90
13336;DHT22;6737;51.480;11.962;2024-03-07T12:30:52;7.00;99.90
13336;DHT22;6737;51.480;11.962;2024-03-07T12:33:20;6.80;99.90
13336;DHT22;6737;51.480;11.962;2024-03-07T12:35:47;7.00;99.90
13336;DHT22;6737;51.480;11.962;2024-03-07T12:38:15;7.10;99.90
13336;DHT22;6737;51.480;11.962;2024-03-07T12:40:42;7.20;99.90
13336;DHT22;6737;51.480;11.962;2024-03-07T12:43:20;7.10;99.90
13336;DHT22;6737;51.480;11.962;2024-03-07T12:45:51;7.20;99.90
13336;DHT22;6737;51.480;11.962;2024-03-07T12:48:18;7.10;99.90
13336;DHT22;6737;51.480;11.962;2024-03-07T12:50:48;7.10;99.90
13336;DHT22;6737;51.480;11.962;2024-03-07T12:53:20;7.00;99.90
13336;DHT22;6737;51.480;11.962;2024-03-07T12:55:48;6.90;99.90
13336;DHT22;6737;51.480;11.962;2024-03-07T12:58:14;6.80;99.90
13336;DHT22;6737;51.480;11.962;2024-03-07T13:00:41;6.80;99.90
13336;DHT22;6737;51.480;11.962;2024-03-07T13:03:10;6.80;99.90
13336;DHT22;6737;51.480;11.962;2024-03-07T13:05:40;6.80;99.90
13336;DHT22;6737;51.480;11.962;2024-03-07T13:08:10;6.90;99.90
13336;DHT22;6737;51.480;11.962;2024-03-07T13:10:42;7.00;99.90
13336;DHT22;6737;51.480;11.962;2024-03-07T13:13:08;6.90;99.90
13336;DHT22;6737;51.480;11.962;2024-03-07T13:15:40;6.90;99.90
13336;DHT22;6737;51.480;11.962;2024-03-07T13:18:09;7.00;99.90
13336;DHT22;6737;51.480;11.962;2024-03-07T13:20:35;6.80;99.90
13336;DHT22;6737;51.480;11.962;2024-03-07T13:23:02;6.80;99.90
13336;DHT22;6737;51.480;11.962;2024-03-07T13:25:29;6.80;99.90
13336;DHT22;6737;51.480;11.962;2024-03-07T13:30:41;6.70;99.90
13336;DHT22;6737;51.480;11.962;2024-03-07T13:33:07;6.90;99.90
13336;DHT22;6737;51.480;11.962;2024-03-07T13:35:33;6.80;99.90
13336;DHT22;6737;51.480;11.962;2024-03-07T13:37:59;6.70;99.90
13336;DHT22;6737;51.480;11.962;2024-03-07T13:40:26;6.70;99.90
13336;DHT22;6737;51.480;11.962;2024-03-07T13:43:00;6.70;99.90
13336;DHT22;6737;51.480;11.962;2024-03-07T13:45:36;6.80;99.90
13336;DHT22;6737;51.480;11.962;2024-03-07T13:48:06;7.00;99.90
13336;DHT22;6737;51.480;11.962;2024-03-07T13:50:33;7.10;99.90
13336;DHT22;6737;51.480;11.962;2024-03-07T13:52:59;7.20;99.90
13336;DHT22;6737;51.480;11.962;2024-03-07T13:58:36;7.00;99.90
13336;DHT22;6737;51.480;11.962;2024-03-07T14:04:06;7.10;99.90
13336;DHT22;6737;51.480;11.962;2024-03-07T14:27:16;7.20;99.90
13336;DHT22;6737;51.480;11.962;2024-03-07T14:32:37;7.10;99.90
13336;DHT22;6737;51.480;11.962;2024-03-07T14:38:24;7.20;99.90
13336;DHT22;6737;51.480;11.962;2024-03-07T14:40:51;7.30;99.90
13336;DHT22;6737;51.480;11.962;2024-03-07T14:43:19;7.40;99.90
13336;DHT22;6737;51.480;11.962;2024-03-07T14:45:46;7.50;99.90
13336;DHT22;6737;51.480;11.962;2024-03-07T14:48:14;7.50;99.90
13336;DHT22;6737;51.480;11.962;2024-03-07T14:50:42;7.50;99.90
13336;DHT22;6737;51.480;11.962;2024-03-07T14:53:12;7.50;99.90
13336;DHT22;6737;51.480;11.962;2024-03-07T14:55:39;7.60;99.90
13336;DHT22;6737;51.480;11.962;2024-03-07T14:58:06;7.50;99.90
13336;DHT22;6737;51.480;11.962;2024-03-07T15:00:39;7.50;99.90
13336;DHT22;6737;51.480;11.962;2024-03-07T15:03:14;7.40;99.90
13336;DHT22;6737;51.480;11.962;2024-03-07T15:05:44;7.30;99.90
13336;DHT22;6737;51.480;11.962;2024-03-07T15:08:13;7.20;99.90
13336;DHT22;6737;51.480;11.962;2024-03-07T15:10:52;7.20;99.90
13336;DHT22;6737;51.480;11.962;2024-03-07T15:13:20;7.00;99.90
13336;DHT22;6737;51.480;11.962;2024-03-07T15:15:46;6.90;99.90
13336;DHT22;6737;51.480;11.962;2024-03-07T15:18:12;7.00;99.90
13336;DHT22;6737;51.480;11.962;2024-03-07T15:20:38;7.00;99.90
13336;DHT22;6737;51.480;11.962;2024-03-07T15:23:04;7.10;99.90
13336;DHT22;6737;51.480;11.962;2024-03-07T15:25:32;7.00;99.90
13336;DHT22;6737;51.480;11.962;2024-03-07T15:27:59;7.00;99.90
13336;DHT22;6737;51.480;11.962;2024-03-07T15:30:27;7.00;99.90
13336;DHT22;6737;51.480;11.962;2024-03-07T15:33:04;7.00;99.90
13336;DHT22;6737;51.480;11.962;2024-03-07T15:35:30;7.00;99.90
13336;DHT22;6737;51.480;11.962;2024-03-07T15:37:57;6.90;99.90
13336;DHT22;6737;51.480;11.962;2024-03-07T15:40:23;6.90;99.90
13336;DHT22;6737;51.480;11.962;2024-03-07T15:42:55;7.00;99.90
13336;DHT22;6737;51.480;11.962;2024-03-07T15:45:23;7.00;99.90
13336;DHT22;6737;51.480;11.962;2024-03-07T15:47:59;7.00;99.90
13336;DHT22;6737;51.480;11.962;2024-03-07T15:50:27;7.00;99.90
13336;DHT22;6737;51.480;11.962;2024-03-07T15:52:57;7.00;99.90
13336;DHT22;6737;51.480;11.962;2024-03-07T15:55:25;7.00;99.90
13336;DHT22;6737;51.480;11.962;2024-03-07T15:57:59;6.90;99.90
13336;DHT22;6737;51.480;11.962;2024-03-07T16:00:30;6.90;99.90
13336;DHT22;6737;51.480;11.962;2024-03-07T16:03:00;6.90;99.90
13336;DHT22;6737;51.480;11.962;2024-03-07T16:05:33;6.80;99.90
13336;DHT22;6737;51.480;11.962;2024-03-07T16:08:01;6.80;99.90
13336;DHT22;6737;51.480;11.962;2024-03-07T16:10:30;6.80;99.90
13336;DHT22;6737;51.480;11.962;2024-03-07T16:12:58;6.80;99.90
13336;DHT22;6737;51.480;11.962;2024-03-07T16:15:25;6.80;99.90
13336;DHT22;6737;51.480;11.962;2024-03-07T16:17:52;6.70;99.90
13336;DHT22;6737;51.480;11.962;2024-03-07T16:20:31;6.70;99.90
13336;DHT22;6737;51.480;11.962;2024-03-07T16:22:59;6.70;99.90
13336;DHT22;6737;51.480;11.962;2024-03-07T16:25:25;6.60;99.90
13336;DHT22;6737;51.480;11.962;2024-03-07T16:27:53;6.60;99.90
13336;DHT22;6737;51.480;11.962;2024-03-07T16:30:24;6.60;99.90
13336;DHT22;6737;51.480;11.962;2024-03-07T16:32:52;6.60;99.90
13336;DHT22;6737;51.480;11.962;2024-03-07T16:35:30;6.60;99.90
13336;DHT22;6737;51.480;11.962;2024-03-07T16:38:00;6.60;99.90